Time;durP1;ratioP1;P1;durP2;ratioP2;P2;SDS_P1;SDS_P2;PMS_P1;PMS_P2;Temp;Humidity;BMP_temperature;BMP_pressure;BME280_temperature;BME280_humidity;BME280_pressure;Samples;Min_cycle;Max_cycle;Signal;HPM_P1;HPM_P2
2022/12/08 00:00:16;;;;;;;2.33;1.10;;;20.20;37.50;;;;;;5035073;28;20037;-55
2022/12/08 00:02:43;;;;;;;2.22;0.90;;;20.20;37.50;;;;;;5035305;28;20069;-53
2022/12/08 00:10:41;;;;;;;1.63;1.02;;;20.20;37.30;;;;;;5055076;28;20104;-53
2022/12/08 00:13:06;;;;;;;2.83;1.15;;;20.20;37.30;;;;;;5037313;28;20467;-49
2022/12/08 00:15:32;;;;;;;1.95;0.88;;;20.20;37.30;;;;;;5054486;28;20060;-56
2022/12/08 00:17:58;;;;;;;1.77;1.05;;;20.10;37.20;;;;;;5050759;28;20036;-53
2022/12/08 00:20:24;;;;;;;2.15;0.90;;;20.10;37.20;;;;;;5050958;28;20028;-52
2022/12/08 00:22:50;;;;;;;2.63;1.10;;;20.10;37.10;;;;;;5026049;28;20037;-49
2022/12/08 00:25:16;;;;;;;1.95;1.08;;;20.10;37.10;;;;;;5045992;28;20044;-51
2022/12/08 00:27:41;;;;;;;1.58;0.80;;;20.10;37.10;;;;;;5056712;28;20040;-54
2022/12/08 00:30:08;;;;;;;1.60;1.10;;;20.10;37.10;;;;;;5040799;28;20095;-54
2022/12/08 00:32:35;;;;;;;1.70;0.98;;;20.10;37.00;;;;;;5058716;28;20067;-50
2022/12/08 00:35:01;;;;;;;2.47;1.08;;;20.10;37.00;;;;;;5058429;28;20412;-51
2022/12/08 00:37:27;;;;;;;2.22;0.85;;;20.10;37.00;;;;;;5055291;28;20032;-51
2022/12/08 00:39:52;;;;;;;2.75;1.10;;;20.10;37.00;;;;;;5044139;28;20107;-51
2022/12/08 00:42:19;;;;;;;1.70;0.90;;;20.10;37.00;;;;;;5038364;28;20113;-54
2022/12/08 00:44:45;;;;;;;1.98;1.00;;;20.00;36.90;;;;;;5038229;28;20116;-51
2022/12/08 00:47:12;;;;;;;1.88;0.90;;;20.10;37.00;;;;;;5045550;28;20020;-54
2022/12/08 00:49:38;;;;;;;2.25;0.82;;;20.10;36.90;;;;;;5058133;28;20037;-51
2022/12/08 00:52:05;;;;;;;3.63;1.00;;;20.00;36.90;;;;;;5058439;28;20067;-52
2022/12/08 00:54:30;;;;;;;1.63;0.77;;;20.00;36.90;;;;;;5058304;28;20095;-52
2022/12/08 00:56:56;;;;;;;1.35;0.82;;;20.00;36.90;;;;;;5054046;28;20033;-52
2022/12/08 00:59:22;;;;;;;1.52;0.80;;;20.00;36.90;;;;;;5040552;28;20352;-51
2022/12/08 01:01:48;;;;;;;1.00;0.70;;;20.00;36.90;;;;;;5057843;28;20033;-53
2022/12/08 01:04:16;;;;;;;1.30;0.73;;;20.00;36.80;;;;;;5058058;28;20028;-51
2022/12/08 01:06:43;;;;;;;1.00;0.70;;;20.00;36.90;;;;;;5055832;28;20039;-49
2022/12/08 01:09:10;;;;;;;2.17;0.85;;;20.00;36.80;;;;;;5057606;28;20044;-50
2022/12/08 01:11:36;;;;;;;1.45;0.60;;;20.00;36.80;;;;;;5055722;28;20049;-52
2022/12/08 01:14:02;;;;;;;1.23;0.73;;;20.00;36.80;;;;;;5051329;28;20052;-53
2022/12/08 01:16:30;;;;;;;1.55;0.60;;;20.00;36.80;;;;;;5040153;28;20170;-54
2022/12/08 01:18:57;;;;;;;1.88;0.68;;;20.00;36.80;;;;;;5053670;28;20062;-52
2022/12/08 01:21:24;;;;;;;2.58;0.73;;;20.00;36.80;;;;;;5057399;28;20399;-49
2022/12/08 01:23:50;;;;;;;2.25;0.93;;;20.00;36.80;;;;;;5057717;28;20032;-48
2022/12/08 01:26:18;;;;;;;1.67;0.80;;;20.00;36.80;;;;;;5044093;28;20411;-48
2022/12/08 01:28:45;;;;;;;3.03;1.00;;;20.00;36.80;;;;;;5038440;28;20099;-54
2022/12/08 01:31:13;;;;;;;1.42;0.70;;;20.00;36.80;;;;;;5022629;28;20095;-53
2022/12/08 01:33:39;;;;;;;1.48;0.50;;;20.00;36.80;;;;;;5057067;28;20061;-64
2022/12/08 01:36:06;;;;;;;1.23;0.70;;;19.90;36.80;;;;;;5056212;28;20025;-54
2022/12/08 01:38:32;;;;;;;2.45;0.85;;;19.90;37.60;;;;;;5056944;28;20108;-50
2022/12/08 01:40:58;;;;;;;1.20;0.60;;;19.90;37.00;;;;;;5057600;28;20033;-54
2022/12/08 01:43:24;;;;;;;3.72;1.05;;;19.90;37.00;;;;;;5056828;28;20445;-55
2022/12/08 01:45:50;;;;;;;1.42;0.68;;;19.90;37.00;;;;;;5055068;28;20348;-54
2022/12/08 01:48:25;;;;;;;1.27;0.70;;;19.90;37.10;;;;;;5047315;28;20036;-49
2022/12/08 01:50:54;;;;;;;1.17;0.60;;;19.90;37.10;;;;;;5056757;28;20514;-51
2022/12/08 01:53:28;;;;;;;1.67;0.90;;;19.90;37.10;;;;;;5056777;28;20032;-55
2022/12/08 01:56:01;;;;;;;0.88;0.60;;;19.90;37.10;;;;;;5055401;28;20048;-54
2022/12/08 01:58:51;;;;;;;2.42;0.80;;;19.80;37.00;;;;;;5055800;28;20047;-57
2022/12/08 02:01:17;;;;;;;0.98;0.57;;;19.90;37.00;;;;;;5043048;28;20049;-49
2022/12/08 02:03:45;;;;;;;1.58;0.90;;;19.90;37.20;;;;;;5056695;28;20043;-55
2022/12/08 02:06:12;;;;;;;1.10;0.60;;;19.90;37.20;;;;;;5039236;28;20035;-49
2022/12/08 02:08:39;;;;;;;1.08;0.80;;;19.90;37.20;;;;;;5052928;28;20044;-50
2022/12/08 02:11:09;;;;;;;2.47;0.93;;;19.90;37.20;;;;;;5054825;28;20132;-52
2022/12/08 02:13:36;;;;;;;1.50;0.85;;;19.90;37.20;;;;;;5052810;28;20052;-49
2022/12/08 02:16:13;;;;;;;1.00;0.73;;;19.90;37.20;;;;;;5055395;28;20504;-54
2022/12/08 02:18:48;;;;;;;1.35;0.90;;;19.80;37.20;;;;;;5053689;28;20029;-51
2022/12/08 02:21:28;;;;;;;1.70;1.13;;;19.80;37.20;;;;;;5048104;28;20027;-56
2022/12/08 02:24:32;;;;;;;1.77;0.75;;;19.80;37.20;;;;;;5049311;28;20024;-51
2022/12/08 02:27:22;;;;;;;1.88;0.90;;;19.80;37.20;;;;;;4974918;28;20049;-54
2022/12/08 02:30:10;;;;;;;2.35;0.88;;;19.80;37.20;;;;;;5055103;28;20047;-52
2022/12/08 02:32:54;;;;;;;1.83;0.90;;;19.80;37.20;;;;;;5039630;28;20115;-50
2022/12/08 02:35:23;;;;;;;;;;;19.80;37.20;;;;;;5037204;28;20037;-57
2022/12/08 02:37:54;;;;;;;1.35;0.93;;;19.80;37.20;;;;;;5055901;28;19909;-55
2022/12/08 02:40:23;;;;;;;1.63;1.13;;;19.70;37.80;;;;;;5056559;28;20034;-54
2022/12/08 02:42:58;;;;;;;2.83;1.10;;;19.70;37.20;;;;;;5038666;28;20033;-53
2022/12/08 02:45:32;;;;;;;1.50;0.90;;;19.70;37.20;;;;;;5035349;28;20040;-57
2022/12/08 02:47:59;;;;;;;1.10;0.70;;;19.70;37.20;;;;;;5040342;28;20167;-53
2022/12/08 02:50:26;;;;;;;1.75;0.90;;;19.70;37.20;;;;;;5055324;28;20036;-56
2022/12/08 02:52:52;;;;;;;2.03;0.98;;;19.70;37.20;;;;;;5049968;28;20028;-55
2022/12/08 02:55:29;;;;;;;1.50;0.90;;;19.70;37.20;;;;;;5055410;28;20037;-55
2022/12/08 02:58:10;;;;;;;1.70;1.17;;;19.70;37.20;;;;;;5035709;28;20037;-56
2022/12/08 03:00:42;;;;;;;1.00;0.70;;;19.70;37.20;;;;;;5035455;28;20109;-57
2022/12/08 03:03:29;;;;;;;1.13;0.70;;;19.70;37.20;;;;;;5054050;28;20074;-57
2022/12/08 03:06:11;;;;;;;1.55;0.80;;;19.70;37.20;;;;;;5037892;28;20472;-55
2022/12/08 03:08:40;;;;;;;1.55;1.00;;;19.70;37.20;;;;;;5055090;28;20495;-56
2022/12/08 03:11:12;;;;;;;1.27;0.80;;;19.70;37.20;;;;;;5054039;28;20461;-57
2022/12/08 03:13:43;;;;;;;1.63;0.90;;;19.70;37.20;;;;;;5055629;28;20111;-56
2022/12/08 03:16:13;;;;;;;1.48;0.80;;;19.70;37.20;;;;;;5055971;28;20106;-54
2022/12/08 03:18:44;;;;;;;2.15;0.90;;;19.70;37.20;;;;;;5055395;28;20464;-53
2022/12/08 03:21:11;;;;;;;1.25;0.63;;;19.70;37.20;;;;;;5053906;28;20076;-56
2022/12/08 03:23:38;;;;;;;1.83;0.80;;;19.70;37.20;;;;;;5054998;28;20036;-55
2022/12/08 03:26:10;;;;;;;1.88;0.82;;;19.70;37.20;;;;;;5055368;28;20413;-55
2022/12/08 03:28:37;;;;;;;1.15;0.70;;;19.70;37.20;;;;;;5053717;28;20108;-53
2022/12/08 03:31:08;;;;;;;1.30;0.60;;;19.70;37.20;;;;;;5054122;28;20021;-52
2022/12/08 03:33:38;;;;;;;0.63;0.63;;;19.70;37.30;;;;;;5054818;28;20094;-52
2022/12/08 03:36:07;;;;;;;1.13;0.70;;;19.70;37.20;;;;;;5054728;28;20047;-53
2022/12/08 03:38:41;;;;;;;1.00;0.68;;;19.60;37.20;;;;;;5055239;28;20041;-52
2022/12/08 03:41:18;;;;;;;1.08;0.68;;;19.60;37.20;;;;;;5050576;28;20025;-57
2022/12/08 03:43:53;;;;;;;1.65;0.82;;;19.60;37.20;;;;;;5035543;28;20377;-53
2022/12/08 03:46:20;;;;;;;0.90;0.70;;;19.60;37.20;;;;;;5034890;28;20048;-57
2022/12/08 03:48:47;;;;;;;1.38;0.68;;;19.60;37.20;;;;;;5045790;28;20044;-56
2022/12/08 03:51:13;;;;;;;0.55;0.50;;;19.70;37.30;;;;;;5053246;28;20113;-56
2022/12/08 03:53:39;;;;;;;1.42;0.70;;;19.60;37.20;;;;;;5054559;28;20033;-57
2022/12/08 03:56:27;;;;;;;2.45;0.88;;;19.60;37.20;;;;;;5055000;28;20436;-54
2022/12/08 03:58:54;;;;;;;1.20;0.68;;;19.60;37.20;;;;;;5054923;28;20115;-55
2022/12/08 04:01:20;;;;;;;0.82;0.60;;;19.60;37.20;;;;;;5047945;28;20353;-53
2022/12/08 04:03:46;;;;;;;1.17;0.70;;;19.60;37.20;;;;;;5018035;28;20512;-56
2022/12/08 04:06:12;;;;;;;1.00;0.70;;;19.60;37.20;;;;;;5035067;28;20125;-53
2022/12/08 04:08:38;;;;;;;0.63;0.50;;;19.60;37.20;;;;;;5050278;28;20040;-53
2022/12/08 04:11:05;;;;;;;1.08;0.60;;;19.60;37.20;;;;;;5051054;28;20041;-56
2022/12/08 04:13:33;;;;;;;1.25;0.50;;;19.60;37.20;;;;;;5043360;28;20036;-53
2022/12/08 04:15:58;;;;;;;1.33;0.60;;;19.60;37.20;;;;;;5054686;28;20041;-56
2022/12/08 04:18:24;;;;;;;1.38;0.52;;;19.60;37.20;;;;;;5037185;28;20115;-52
2022/12/08 04:20:50;;;;;;;1.00;0.52;;;19.50;37.20;;;;;;5053379;28;20398;-57
2022/12/08 04:23:16;;;;;;;1.08;0.40;;;19.60;37.20;;;;;;5034304;28;20036;-56
2022/12/08 04:25:42;;;;;;;0.95;0.50;;;19.60;37.20;;;;;;5035133;28;20175;-55
2022/12/08 04:28:08;;;;;;;1.17;0.47;;;19.60;37.20;;;;;;5034371;28;20079;-56
2022/12/08 04:30:34;;;;;;;0.73;0.38;;;19.60;37.80;;;;;;5045513;28;20043;-51
2022/12/08 04:32:59;;;;;;;0.88;0.40;;;19.60;37.20;;;;;;5046281;28;20422;-54
2022/12/08 04:35:25;;;;;;;0.82;0.40;;;19.60;37.20;;;;;;5054604;28;20033;-50
2022/12/08 04:37:51;;;;;;;0.55;0.50;;;19.50;37.10;;;;;;5037136;28;20041;-56
2022/12/08 04:40:17;;;;;;;1.13;0.30;;;19.50;37.10;;;;;;5054439;28;20037;-53
2022/12/08 04:42:44;;;;;;;1.00;0.25;;;19.50;37.10;;;;;;5017442;28;20107;-54
2022/12/08 04:45:10;;;;;;;1.40;0.38;;;19.50;37.10;;;;;;5034352;28;20437;-51
2022/12/08 04:47:36;;;;;;;0.50;0.20;;;19.50;37.00;;;;;;5034802;28;20502;-55
2022/12/08 04:50:02;;;;;;;0.40;0.25;;;19.50;37.00;;;;;;5032777;28;20135;-52
2022/12/08 04:52:28;;;;;;;0.90;0.32;;;19.50;37.00;;;;;;5047962;28;20448;-47
2022/12/08 04:54:54;;;;;;;0.50;0.40;;;19.50;37.00;;;;;;5054154;28;20040;-51
2022/12/08 04:57:20;;;;;;;0.98;0.40;;;19.50;36.90;;;;;;5054187;28;20045;-57
2022/12/08 04:59:45;;;;;;;0.60;0.25;;;19.50;36.90;;;;;;5054272;28;20108;-50
2022/12/08 05:02:12;;;;;;;0.20;0.20;;;19.50;36.90;;;;;;5043578;28;20033;-56
2022/12/08 05:04:38;;;;;;;0.30;0.25;;;19.50;37.00;;;;;;5046172;28;20029;-50
2022/12/08 05:07:04;;;;;;;0.60;0.30;;;19.50;36.90;;;;;;5053879;28;20044;-52
2022/12/08 05:09:30;;;;;;;0.65;0.22;;;19.50;36.90;;;;;;5056696;28;20025;-53
2022/12/08 05:11:56;;;;;;;0.63;0.28;;;19.50;36.90;;;;;;5055945;28;20057;-55
2022/12/08 05:14:22;;;;;;;0.47;0.30;;;19.40;36.90;;;;;;5057749;28;20052;-51
2022/12/08 05:16:48;;;;;;;0.45;0.20;;;19.50;37.00;;;;;;5057784;28;20048;-52
2022/12/08 05:19:14;;;;;;;0.60;0.30;;;19.40;36.90;;;;;;5056669;28;20029;-50
2022/12/08 05:21:40;;;;;;;0.85;0.38;;;19.50;37.00;;;;;;5051900;28;20026;-53
2022/12/08 05:24:06;;;;;;;0.77;0.38;;;19.40;37.00;;;;;;5038137;28;20064;-54
2022/12/08 05:26:32;;;;;;;0.32;0.30;;;19.40;37.00;;;;;;5037892;28;20126;-55
2022/12/08 05:28:58;;;;;;;0.93;0.20;;;19.40;37.00;;;;;;5055473;28;20035;-54
2022/12/08 05:31:24;;;;;;;1.88;0.47;;;19.50;37.10;;;;;;5021149;28;20486;-52
2022/12/08 05:33:51;;;;;;;0.70;0.30;;;19.40;37.00;;;;;;5057719;28;20100;-50
2022/12/08 05:36:16;;;;;;;0.63;0.22;;;19.40;37.00;;;;;;5057039;28;20471;-49
2022/12/08 05:38:43;;;;;;;0.70;0.40;;;19.40;37.00;;;;;;5057187;28;20033;-53
2022/12/08 05:41:12;;;;;;;0.98;0.40;;;19.40;37.00;;;;;;5053546;28;20028;-54
2022/12/08 05:43:38;;;;;;;1.20;0.30;;;19.40;37.00;;;;;;5037552;28;20030;-58
2022/12/08 05:46:04;;;;;;;0.77;0.40;;;19.40;37.00;;;;;;5038019;28;20029;-56
2022/12/08 05:48:30;;;;;;;0.82;0.30;;;19.40;37.00;;;;;;5046232;28;20029;-51
2022/12/08 05:50:55;;;;;;;0.38;0.20;;;19.40;37.10;;;;;;5040245;28;20379;-56
2022/12/08 05:53:21;;;;;;;0.40;0.20;;;19.40;37.10;;;;;;5037163;28;20025;-54
2022/12/08 05:55:47;;;;;;;0.45;0.22;;;19.40;37.00;;;;;;5037566;28;20385;-53
2022/12/08 05:58:18;;;;;;;0.70;0.38;;;19.40;37.00;;;;;;5044881;28;20306;-50
2022/12/08 06:00:45;;;;;;;0.82;0.30;;;19.40;37.00;;;;;;5055725;28;20044;-55
2022/12/08 06:03:13;;;;;;;0.43;0.22;;;19.40;37.00;;;;;;5037805;28;20026;-53
2022/12/08 06:05:40;;;;;;;0.30;0.25;;;19.40;37.00;;;;;;5041588;28;20037;-57
2022/12/08 06:08:06;;;;;;;1.35;0.40;;;19.40;37.00;;;;;;5056498;28;20028;-52
2022/12/08 06:10:32;;;;;;;0.88;0.30;;;19.40;37.00;;;;;;5054732;28;20048;-54
2022/12/08 06:12:58;;;;;;;0.55;0.30;;;19.40;37.00;;;;;;5055314;28;20033;-58
2022/12/08 06:15:24;;;;;;;0.50;0.28;;;19.40;37.10;;;;;;5054469;28;20341;-50
2022/12/08 06:17:50;;;;;;;1.10;0.30;;;19.40;37.00;;;;;;5056158;28;20064;-51
2022/12/08 06:20:16;;;;;;;0.10;0.10;;;19.30;37.00;;;;;;5055680;28;20068;-53
2022/12/08 06:22:42;;;;;;;0.20;0.10;;;19.30;37.10;;;;;;5057405;28;20037;-54
2022/12/08 06:25:08;;;;;;;0.45;0.30;;;19.40;37.20;;;;;;5055110;28;20036;-53
2022/12/08 06:27:34;;;;;;;0.52;0.20;;;19.40;37.10;;;;;;5054644;28;20110;-52
2022/12/08 06:30:00;;;;;;;0.32;0.20;;;19.40;37.70;;;;;;5047129;28;20429;-55
2022/12/08 06:32:26;;;;;;;0.43;0.20;;;19.40;37.00;;;;;;5030708;28;20445;-53
2022/12/08 06:34:52;;;;;;;0.13;0.10;;;19.40;37.00;;;;;;5054292;28;20372;-54
2022/12/08 06:37:18;;;;;;;0.52;0.20;;;19.30;36.90;;;;;;5054219;28;20048;-51
2022/12/08 06:39:44;;;;;;;0.55;0.30;;;19.30;36.80;;;;;;5054909;28;20025;-53
2022/12/08 06:44:54;;;;;;;0.47;0.15;;;19.30;36.80;;;;;;5046283;28;20033;-54
2022/12/08 06:47:21;;;;;;;1.02;0.30;;;19.30;36.70;;;;;;5040552;28;20034;-56
2022/12/08 06:49:47;;;;;;;2.40;0.20;;;19.30;36.70;;;;;;5051410;28;20471;-54
2022/12/08 06:52:13;;;;;;;0.85;0.17;;;19.30;36.70;;;;;;5037446;28;20338;-52
2022/12/08 06:54:38;;;;;;;0.20;0.20;;;19.30;36.60;;;;;;5055176;28;20039;-55
2022/12/08 06:57:04;;;;;;;0.40;0.20;;;19.30;36.50;;;;;;5055346;28;20044;-55
2022/12/08 06:59:30;;;;;;;0.43;0.22;;;19.30;36.50;;;;;;5045080;28;20043;-51
2022/12/08 07:01:56;;;;;;;0.50;0.20;;;19.30;36.40;;;;;;5056073;28;20032;-55
2022/12/08 07:04:22;;;;;;;1.75;0.30;;;19.30;36.40;;;;;;5055391;28;20078;-53
2022/12/08 07:06:48;;;;;;;0.50;0.30;;;19.30;36.30;;;;;;5054142;28;20452;-55
2022/12/08 07:09:14;;;;;;;1.90;0.30;;;19.20;36.30;;;;;;5054415;28;20055;-56
2022/12/08 07:11:39;;;;;;;0.40;0.30;;;19.20;36.30;;;;;;5034249;28;20453;-56
2022/12/08 07:14:05;;;;;;;1.17;0.40;;;19.30;36.30;;;;;;5048548;28;20121;-52
2022/12/08 07:16:31;;;;;;;0.98;0.30;;;19.20;36.30;;;;;;5035717;28;20103;-55
2022/12/08 07:18:59;;;;;;;1.17;0.30;;;19.20;36.30;;;;;;5051080;28;20471;-54
2022/12/08 07:21:26;;;;;;;2.08;0.30;;;19.20;36.30;;;;;;5050825;28;20049;-58
2022/12/08 07:23:51;;;;;;;1.80;0.30;;;19.20;36.40;;;;;;5054960;28;20463;-54
2022/12/08 07:26:17;;;;;;;0.75;0.30;;;19.20;36.30;;;;;;5046629;28;20468;-56
2022/12/08 07:28:43;;;;;;;0.38;0.10;;;19.20;36.30;;;;;;5044316;28;20106;-55
2022/12/08 07:31:21;;;;;;;0.25;0.20;;;19.20;36.30;;;;;;5041207;28;20108;-52
2022/12/08 07:33:49;;;;;;;0.52;0.40;;;19.20;36.40;;;;;;5026172;28;20040;-51
2022/12/08 07:36:15;;;;;;;0.73;0.28;;;19.20;36.40;;;;;;5038447;28;20168;-54
2022/12/08 07:38:42;;;;;;;2.13;0.32;;;19.20;36.40;;;;;;5054938;28;20037;-50
2022/12/08 07:41:19;;;;;;;1.85;0.32;;;19.20;36.40;;;;;;5055154;28;20029;-51
2022/12/08 07:43:45;;;;;;;1.73;0.40;;;19.20;36.40;;;;;;5055044;28;20467;-53
2022/12/08 07:46:17;;;;;;;2.30;0.50;;;19.20;36.50;;;;;;5047148;28;20025;-58
2022/12/08 07:48:43;;;;;;;1.15;0.43;;;19.20;36.50;;;;;;5041629;28;20083;-58
2022/12/08 07:51:12;;;;;;;0.68;0.38;;;19.20;36.50;;;;;;5054130;28;20025;-53
2022/12/08 07:53:39;;;;;;;0.85;0.30;;;19.20;36.50;;;;;;5054705;28;20461;-50
2022/12/08 07:56:06;;;;;;;0.82;0.30;;;19.20;36.60;;;;;;5051924;28;20364;-56
2022/12/08 07:58:33;;;;;;;1.40;0.40;;;19.20;36.70;;;;;;5054923;28;20353;-56
2022/12/08 08:00:59;;;;;;;0.45;0.40;;;19.20;36.70;;;;;;5035606;28;20448;-55
2022/12/08 08:03:24;;;;;;;1.02;0.30;;;19.20;36.70;;;;;;5053238;28;20094;-55
2022/12/08 08:05:51;;;;;;;1.15;0.40;;;19.20;36.70;;;;;;5053871;28;20044;-53
2022/12/08 08:08:17;;;;;;;1.02;0.30;;;19.20;36.70;;;;;;5052557;28;20025;-56
2022/12/08 08:10:45;;;;;;;0.63;0.35;;;19.20;36.70;;;;;;5050656;28;20033;-55
2022/12/08 08:13:11;;;;;;;1.05;0.70;;;19.20;36.70;;;;;;5054764;28;20122;-52
2022/12/08 08:15:37;;;;;;;0.60;0.40;;;19.20;36.70;;;;;;5053759;28;20037;-56
2022/12/08 08:18:03;;;;;;;2.17;0.30;;;19.30;36.80;;;;;;5053973;28;20033;-51
2022/12/08 08:20:29;;;;;;;0.77;0.40;;;19.30;36.80;;;;;;5053959;28;20021;-51
2022/12/08 08:22:54;;;;;;;1.42;0.50;;;19.30;36.80;;;;;;5054905;28;20029;-53
2022/12/08 08:25:23;;;;;;;1.10;0.40;;;19.40;36.80;;;;;;5040804;28;20484;-56
2022/12/08 08:27:49;;;;;;;1.65;0.47;;;19.40;36.80;;;;;;5034701;28;20021;-53
2022/12/08 08:30:16;;;;;;;1.40;0.50;;;19.50;36.80;;;;;;5034444;28;20125;-53
2022/12/08 08:32:42;;;;;;;1.17;0.40;;;19.60;36.80;;;;;;5046364;28;20037;-53
2022/12/08 08:35:09;;;;;;;2.15;0.57;;;19.60;36.70;;;;;;5054389;28;20037;-55
2022/12/08 08:37:35;;;;;;;1.60;0.50;;;19.60;36.60;;;;;;5054690;28;20070;-57
2022/12/08 08:40:01;;;;;;;1.23;0.50;;;19.70;36.60;;;;;;5054257;28;20033;-57
2022/12/08 08:42:27;;;;;;;2.05;0.47;;;19.80;36.60;;;;;;5045526;28;20030;-55
2022/12/08 08:44:52;;;;;;;1.55;0.65;;;19.90;36.50;;;;;;5038018;28;20032;-55
2022/12/08 08:47:18;;;;;;;1.25;0.63;;;19.90;36.40;;;;;;5044547;28;20112;-54
2022/12/08 08:49:45;;;;;;;0.82;0.45;;;20.00;36.40;;;;;;5053885;28;20024;-53
2022/12/08 08:52:14;;;;;;;1.20;0.50;;;20.00;36.30;;;;;;5057373;28;20352;-54
2022/12/08 08:54:40;;;;;;;2.00;0.80;;;20.10;36.20;;;;;;5056640;28;20044;-54
2022/12/08 08:57:07;;;;;;;1.85;0.85;;;20.20;36.20;;;;;;5057283;28;20086;-55
2022/12/08 08:59:33;;;;;;;2.60;0.70;;;20.20;36.10;;;;;;5055851;28;20029;-57
2022/12/08 09:01:59;;;;;;;1.33;0.57;;;20.30;36.00;;;;;;5057761;28;20344;-55
2022/12/08 09:04:25;;;;;;;1.30;0.50;;;20.30;35.90;;;;;;5051631;28;20028;-55
2022/12/08 09:06:51;;;;;;;1.23;0.52;;;20.40;35.90;;;;;;5039092;28;20032;-54
2022/12/08 09:09:17;;;;;;;1.27;0.55;;;20.50;35.80;;;;;;5053316;28;20044;-54
2022/12/08 09:11:43;;;;;;;0.90;0.50;;;20.50;35.70;;;;;;5056107;28;20056;-55
2022/12/08 09:14:16;;;;;;;1.00;0.45;;;20.60;35.60;;;;;;5055230;28;20025;-50
2022/12/08 09:16:42;;;;;;;1.48;0.70;;;20.70;35.60;;;;;;5027442;28;20448;-53
2022/12/08 09:19:08;;;;;;;1.45;0.50;;;20.70;35.50;;;;;;5048444;28;20040;-56
2022/12/08 09:21:34;;;;;;;1.15;0.40;;;20.70;35.50;;;;;;5048613;28;20048;-50
2022/12/08 09:24:00;;;;;;;1.25;0.60;;;20.80;35.40;;;;;;5057454;28;20447;-52
2022/12/08 09:26:27;;;;;;;2.60;0.70;;;20.80;35.30;;;;;;5039851;28;20463;-50
2022/12/08 09:28:54;;;;;;;1.38;0.50;;;20.90;35.30;;;;;;5048080;28;20045;-51
2022/12/08 09:31:22;;;;;;;1.52;0.60;;;20.90;35.20;;;;;;5037644;28;20036;-50
2022/12/08 09:33:50;;;;;;;1.40;0.55;;;21.00;35.20;;;;;;5037782;28;20021;-53
2022/12/08 09:36:16;;;;;;;0.85;0.38;;;21.00;35.10;;;;;;5057467;28;20076;-55
2022/12/08 09:38:42;;;;;;;1.42;0.60;;;21.00;35.00;;;;;;5056971;28;20091;-55
2022/12/08 09:41:35;;;;;;;1.23;0.60;;;21.00;34.90;;;;;;5057692;28;20037;-53
2022/12/08 09:44:26;;;;;;;1.58;0.50;;;21.10;34.90;;;;;;5053391;28;20139;-54
2022/12/08 09:46:53;;;;;;;0.98;0.28;;;21.10;34.80;;;;;;5038984;28;20108;-53
2022/12/08 09:49:26;;;;;;;1.98;0.40;;;21.10;34.70;;;;;;5054693;28;20017;-56
2022/12/08 09:51:52;;;;;;;2.15;0.43;;;21.20;34.70;;;;;;5056870;28;20096;-56
2022/12/08 09:54:26;;;;;;;1.40;0.50;;;21.20;34.60;;;;;;5056693;28;20334;-53
2022/12/08 09:56:55;;;;;;;1.60;0.52;;;21.20;34.60;;;;;;5055989;28;20105;-55
2022/12/08 09:59:29;;;;;;;0.93;0.50;;;21.20;34.60;;;;;;5044935;28;20033;-54
2022/12/08 10:01:55;;;;;;;0.65;0.38;;;21.20;34.50;;;;;;5053568;28;20029;-55
2022/12/08 10:04:24;;;;;;;0.75;0.40;;;21.20;34.50;;;;;;5057296;28;20033;-53
2022/12/08 10:07:05;;;;;;;0.60;0.40;;;21.20;34.50;;;;;;5056385;28;20032;-57
2022/12/08 10:10:02;;;;;;;1.17;0.68;;;21.20;34.40;;;;;;5049612;28;20037;-55
2022/12/08 10:13:09;;;;;;;1.08;0.60;;;21.20;34.40;;;;;;5052514;28;20476;-57
2022/12/08 10:15:58;;;;;;;0.85;0.40;;;21.20;34.40;;;;;;4974587;28;20200;-58
2022/12/08 10:18:32;;;;;;;1.05;0.50;;;21.20;34.60;;;;;;4972368;28;20062;-54
2022/12/08 10:21:31;;;;;;;2.63;0.63;;;21.20;34.90;;;;;;5017038;28;20046;-57
2022/12/08 10:24:04;;;;;;;0.98;0.45;;;21.20;35.00;;;;;;4976210;28;20042;-57
2022/12/08 10:26:31;;;;;;;0.73;0.40;;;21.20;35.10;;;;;;5036762;28;20037;-54
2022/12/08 10:29:01;;;;;;;4.43;0.88;;;21.20;35.10;;;;;;5049114;28;20095;-56
2022/12/08 10:31:29;;;;;;;1.92;0.45;;;21.20;35.10;;;;;;5054519;28;20033;-56
2022/12/08 10:34:23;;;;;;;0.93;0.50;;;21.20;35.10;;;;;;5050421;28;20032;-53
2022/12/08 10:36:55;;;;;;;1.35;0.50;;;21.10;35.00;;;;;;5056556;28;20041;-54
2022/12/08 10:39:42;;;;;;;1.48;0.52;;;21.10;35.00;;;;;;5053027;28;20025;-55
2022/12/08 10:42:17;;;;;;;0.73;0.45;;;21.10;35.00;;;;;;5052379;28;20029;-56
2022/12/08 10:44:55;;;;;;;;;;;21.10;34.90;;;;;;5055423;28;20471;-52
2022/12/08 10:47:24;;;;;;;1.17;0.50;;;21.10;34.90;;;;;;5055875;28;19916;-53
2022/12/08 10:50:22;;;;;;;0.70;0.40;;;21.10;34.90;;;;;;5054960;28;20056;-54
2022/12/08 10:52:59;;;;;;;0.20;0.20;;;21.10;34.90;;;;;;5055132;28;20420;-56
2022/12/08 10:55:26;;;;;;;0.60;0.40;;;21.00;34.80;;;;;;5056038;28;20332;-55
2022/12/08 10:57:52;;;;;;;1.05;0.40;;;21.00;34.90;;;;;;5055769;28;20033;-53
2022/12/08 11:00:22;;;;;;;1.48;0.50;;;21.00;34.80;;;;;;5051884;28;20047;-57
2022/12/08 11:03:20;;;;;;;2.22;0.30;;;21.00;34.80;;;;;;5054858;28;20112;-57
2022/12/08 11:05:46;;;;;;;0.60;0.30;;;21.00;34.90;;;;;;5051734;28;20472;-59
2022/12/08 11:08:15;;;;;;;0.88;0.32;;;21.00;35.10;;;;;;5055097;28;20032;-57
2022/12/08 11:10:44;;;;;;;0.60;0.32;;;21.00;35.30;;;;;;5050554;28;20025;-59
2022/12/08 11:13:28;;;;;;;1.42;0.25;;;21.00;35.50;;;;;;5006799;28;20041;-52
2022/12/08 11:15:56;;;;;;;5.82;0.47;;;21.00;35.60;;;;;;5007894;28;20037;-53
2022/12/08 11:18:25;;;;;;;2.08;0.40;;;21.00;35.50;;;;;;5015768;28;20069;-52
2022/12/08 11:21:05;;;;;;;1.08;0.30;;;21.00;35.50;;;;;;5012338;28;20088;-56
2022/12/08 11:23:35;;;;;;;0.98;0.50;;;21.00;35.40;;;;;;5006969;28;20366;-54
2022/12/08 11:26:27;;;;;;;1.88;0.40;;;21.00;35.40;;;;;;5010011;28;20105;-54
2022/12/08 11:28:53;;;;;;;1.77;0.65;;;21.00;35.30;;;;;;5008026;28;20064;-52
2022/12/08 11:31:53;;;;;;;0.50;0.30;;;21.00;35.30;;;;;;5014472;28;20030;-54
2022/12/08 11:34:43;;;;;;;1.27;0.50;;;21.00;35.20;;;;;;4993197;28;20053;-56
2022/12/08 11:37:34;;;;;;;0.73;0.30;;;21.00;35.10;;;;;;5008945;28;20046;-50
2022/12/08 11:40:06;;;;;;;1.10;0.40;;;21.00;35.10;;;;;;5011012;28;20049;-55
2022/12/08 11:42:45;;;;;;;0.40;0.22;;;21.00;35.20;;;;;;5008360;28;20361;-53
2022/12/08 11:45:23;;;;;;;1.23;0.55;;;21.00;35.10;;;;;;4982479;28;20057;-52
2022/12/08 11:48:02;;;;;;;0.85;0.38;;;21.00;35.00;;;;;;5009504;28;20030;-56
2022/12/08 11:50:37;;;;;;;0.73;0.40;;;21.00;35.00;;;;;;5011491;28;21775;-52
2022/12/08 11:53:05;;;;;;;0.85;0.38;;;21.00;35.00;;;;;;5013326;28;20417;-56
2022/12/08 11:55:52;;;;;;;1.48;0.40;;;21.00;35.00;;;;;;5011996;28;20060;-55
2022/12/08 11:58:38;;;;;;;1.20;0.50;;;21.00;35.00;;;;;;5015789;28;20049;-58
2022/12/08 12:01:04;;;;;;;1.60;0.32;;;21.00;35.00;;;;;;5014978;28;20034;-58
2022/12/08 12:03:44;;;;;;;0.93;0.40;;;21.00;35.10;;;;;;5013871;28;20045;-55
2022/12/08 12:06:22;;;;;;;1.48;0.60;;;21.00;35.20;;;;;;5000714;28;20133;-55
2022/12/08 12:09:06;;;;;;;4.07;0.45;;;21.00;35.40;;;;;;5004480;28;20030;-55
2022/12/08 12:14:57;;;;;;;3.13;0.50;;;21.00;35.90;;;;;;5014975;28;20132;-59
2022/12/08 12:17:26;;;;;;;1.00;0.60;;;21.10;35.90;;;;;;5030031;28;20037;-59
2022/12/08 12:19:54;;;;;;;2.33;0.45;;;21.10;35.90;;;;;;5040978;28;20395;-60
2022/12/08 12:22:22;;;;;;;1.48;0.50;;;21.20;36.10;;;;;;5035603;28;20022;-59
2022/12/08 12:24:50;;;;;;;1.25;0.35;;;21.30;36.20;;;;;;5041432;28;20115;-59
2022/12/08 12:27:28;;;;;;;1.90;0.40;;;21.50;36.20;;;;;;5034485;28;21143;-60
2022/12/08 12:30:03;;;;;;;0.85;0.40;;;21.70;36.10;;;;;;5033616;28;20033;-60
2022/12/08 12:33:00;;;;;;;0.88;0.22;;;21.90;35.90;;;;;;5037447;28;20464;-59
2022/12/08 12:35:33;;;;;;;3.17;0.40;;;22.20;35.50;;;;;;5034986;28;20037;-56
2022/12/08 12:38:59;;;;;;;3.03;0.50;;;22.50;35.10;;;;;;5029113;28;20029;-55
2022/12/08 12:41:01;;;;;;;1.58;0.32;;;22.70;34.80;;;;;;5030779;28;20490;-58
2022/12/08 12:43:31;;;;;;;2.63;0.40;;;23.00;34.50;;;;;;5035957;28;20041;-60
2022/12/08 12:46:22;;;;;;;1.55;0.50;;;23.20;34.30;;;;;;5037334;28;20061;-59
2022/12/08 12:48:49;;;;;;;0.52;0.30;;;23.40;34.00;;;;;;5030550;28;20371;-59
2022/12/08 12:51:44;;;;;;;1.80;0.38;;;23.60;33.60;;;;;;5028448;28;20022;-58
2022/12/08 12:54:28;;;;;;;2.15;0.50;;;23.80;33.40;;;;;;5029627;28;20167;-56
2022/12/08 12:57:12;;;;;;;1.95;0.60;;;24.00;33.20;;;;;;5030440;28;20034;-59
2022/12/08 13:00:07;;;;;;;1.90;0.40;;;24.20;32.90;;;;;;5028814;28;20183;-59
2022/12/08 13:02:47;;;;;;;1.80;0.50;;;24.30;32.70;;;;;;5037099;28;20322;-61
2022/12/08 13:05:25;;;;;;;1.20;0.32;;;24.40;32.50;;;;;;5030540;28;20171;-60
2022/12/08 13:08:21;;;;;;;0.47;0.40;;;24.50;32.40;;;;;;5031335;28;20029;-60
2022/12/08 13:11:05;;;;;;;1.05;0.35;;;24.50;32.30;;;;;;5029980;28;20338;-60
2022/12/08 13:13:32;;;;;;;0.68;0.30;;;24.50;32.20;;;;;;5031030;28;20051;-62
2022/12/08 13:16:09;;;;;;;2.90;0.30;;;24.50;32.10;;;;;;5031415;28;20049;-59